Time,TemperatureF,DewpointF,PressureIn,WindDirection,WindDirectionDegrees,WindSpeedMPH,WindSpeedGustMPH,Humidity,HourlyPrecipIn,Conditions,Clouds,dailyrainin,SoftwareType,DateUTC
2013-07-25 00:02:00,57.0,45.0,-100.00,NNE,17,4.0,5.0,63,-99.99,,,-99.99,,2013-07-25 07:02:00,
2013-07-25 00:22:00,56.0,46.0,-100.00,North,10,3.0,4.0,69,-99.99,,,-99.99,,2013-07-25 07:22:00,
2013-07-25 00:32:00,55.0,45.0,-100.00,NNE,14,4.0,6.0,68,-99.99,,,-99.99,,2013-07-25 07:32:00,
2013-07-25 00:43:00,55.0,45.0,-100.00,NNE,14,4.0,6.0,68,-99.99,,,-99.99,,2013-07-25 07:43:00,
2013-07-25 00:53:00,56.0,44.0,-100.00,NNE,28,3.0,3.0,65,-99.99,,,-99.99,,2013-07-25 07:53:00,
2013-07-25 01:02:00,56.0,44.0,-100.00,NNE,28,3.0,3.0,65,-99.99,,,-99.99,,2013-07-25 08:02:00,
2013-07-25 01:12:00,56.0,44.0,-100.00,NNE,28,3.0,3.0,65,-99.99,,,-99.99,,2013-07-25 08:12:00,
2013-07-25 01:44:00,56.0,44.0,-100.00,North,-999,-999.0,-999.0,65,-99.99,,,-99.99,,2013-07-25 08:44:00,
2013-07-25 01:52:00,56.0,44.0,-100.00,NNE,23,2.0,4.0,65,-99.99,,,-99.99,,2013-07-25 08:52:00,
2013-07-25 02:02:00,56.0,44.0,-100.00,NNE,23,2.0,4.0,65,-99.99,,,-99.99,,2013-07-25 09:02:00,
2013-07-25 02:12:00,56.0,44.0,-100.00,NNE,23,2.0,4.0,65,-99.99,,,-99.99,,2013-07-25 09:12:00,
2013-07-25 03:02:00,56.0,45.0,-100.00,North,-999,-999.0,-999.0,67,-99.99,,,-99.99,,2013-07-25 10:02:00,
2013-07-25 03:22:00,56.0,45.0,-100.00,North,10,4.0,6.0,67,-99.99,,,-99.99,,2013-07-25 10:22:00,
2013-07-25 03:32:00,54.0,45.0,-100.00,NNE,18,3.0,5.0,71,-99.99,,,-99.99,,2013-07-25 10:32:00,
2013-07-25 03:42:00,54.0,45.0,-100.00,NNE,18,3.0,5.0,71,-99.99,,,-99.99,,2013-07-25 10:42:00,
2013-07-25 03:53:00,54.0,44.0,-100.00,NNE,18,3.0,5.0,68,-99.99,,,-99.99,,2013-07-25 10:53:00,
2013-07-25 04:02:00,54.0,44.0,-100.00,NNE,18,3.0,5.0,68,-99.99,,,-99.99,,2013-07-25 11:02:00,
2013-07-25 04:12:00,54.0,43.0,-100.00,NNE,16,3.0,4.0,66,-99.99,,,-99.99,,2013-07-25 11:12:00,
2013-07-25 04:22:00,54.0,43.0,-100.00,NNE,16,3.0,4.0,66,-99.99,,,-99.99,,2013-07-25 11:22:00,
2013-07-25 04:32:00,54.0,43.0,-100.00,NNE,16,3.0,4.0,66,-99.99,,,-99.99,,2013-07-25 11:32:00,
2013-07-25 04:52:00,54.0,42.0,-100.00,NNE,17,3.0,5.0,64,-99.99,,,-99.99,,2013-07-25 11:52:00,
2013-07-25 05:02:00,54.0,42.0,-100.00,NNE,17,3.0,5.0,64,-99.99,,,-99.99,,2013-07-25 12:02:00,
2013-07-25 05:12:00,54.0,42.0,-100.00,NNE,17,3.0,5.0,64,-99.99,,,-99.99,,2013-07-25 12:12:00,
2013-07-25 05:32:00,56.0,42.0,-100.00,NNE,14,4.0,6.0,60,-99.99,,,-99.99,,2013-07-25 12:32:00,
2013-07-25 05:45:00,56.0,42.0,-100.00,NNE,14,4.0,6.0,60,-99.99,,,-99.99,,2013-07-25 12:45:00,
2013-07-25 05:53:00,56.0,42.0,-100.00,NNE,14,4.0,6.0,60,-99.99,,,-99.99,,2013-07-25 12:53:00,
2013-07-25 06:02:00,56.0,42.0,-100.00,NNE,14,4.0,6.0,60,-99.99,,,-99.99,,2013-07-25 13:02:00,
2013-07-25 06:33:00,60.0,41.0,-100.00,North,-999,-999.0,-999.0,49,-99.99,,,-99.99,,2013-07-25 13:33:00,
2013-07-25 06:43:00,60.0,41.0,-100.00,North,11,5.0,7.0,49,-99.99,,,-99.99,,2013-07-25 13:43:00,
2013-07-25 06:53:00,60.0,41.0,-100.00,North,11,5.0,7.0,49,-99.99,,,-99.99,,2013-07-25 13:53:00,
2013-07-25 07:02:00,60.0,41.0,-100.00,North,11,5.0,7.0,49,-99.99,,,-99.99,,2013-07-25 14:02:00,
2013-07-25 07:22:00,61.0,43.0,-100.00,North,8,6.0,8.0,52,-99.99,,,-99.99,,2013-07-25 14:22:00,
2013-07-25 07:33:00,61.0,43.0,-100.00,North,8,6.0,8.0,52,-99.99,,,-99.99,,2013-07-25 14:33:00,
2013-07-25 07:43:00,61.0,43.0,-100.00,North,8,6.0,8.0,52,-99.99,,,-99.99,,2013-07-25 14:43:00,
2013-07-25 07:53:00,60.0,45.0,-100.00,North,-999,-999.0,-999.0,56,-99.99,,,-99.99,,2013-07-25 14:53:00,
2013-07-25 08:02:00,60.0,44.0,-100.00,North,7,5.0,7.0,56,-99.99,,,-99.99,,2013-07-25 15:02:00,
2013-07-25 08:12:00,60.0,44.0,-100.00,North,7,5.0,7.0,56,-99.99,,,-99.99,,2013-07-25 15:12:00,
2013-07-25 08:22:00,60.0,44.0,-100.00,North,7,5.0,7.0,56,-99.99,,,-99.99,,2013-07-25 15:22:00,
2013-07-25 08:44:00,68.0,44.0,-100.00,SSE,151,0.0,3.0,42,-99.99,,,-99.99,,2013-07-25 15:44:00,
2013-07-25 08:53:00,68.0,44.0,-100.00,SSE,151,0.0,3.0,42,-99.99,,,-99.99,,2013-07-25 15:53:00,
2013-07-25 09:02:00,68.0,44.0,-100.00,SSE,151,0.0,3.0,42,-99.99,,,-99.99,,2013-07-25 16:02:00,
2013-07-25 09:22:00,68.0,44.0,-100.00,NW,316,3.0,7.0,42,-99.99,,,-99.99,,2013-07-25 16:22:00,
2013-07-25 09:33:00,68.0,44.0,-100.00,NW,316,3.0,7.0,42,-99.99,,,-99.99,,2013-07-25 16:33:00,
2013-07-25 09:45:00,68.0,44.0,-100.00,NW,316,3.0,7.0,42,-99.99,,,-99.99,,2013-07-25 16:45:00,
2013-07-25 10:02:00,70.0,46.0,-100.00,NW,304,5.0,8.0,42,-99.99,,,-99.99,,2013-07-25 17:02:00,
2013-07-25 10:12:00,70.0,46.0,-100.00,NW,304,5.0,8.0,42,-99.99,,,-99.99,,2013-07-25 17:12:00,
2013-07-25 10:22:00,70.0,46.0,-100.00,NW,304,5.0,8.0,42,-99.99,,,-99.99,,2013-07-25 17:22:00,
2013-07-25 11:02:00,71.0,47.0,-100.00,West,277,3.0,8.0,43,-99.99,,,-99.99,,2013-07-25 18:02:00,
2013-07-25 11:12:00,71.0,47.0,-100.00,West,277,3.0,8.0,43,-99.99,,,-99.99,,2013-07-25 18:12:00,
2013-07-25 11:22:00,73.0,44.0,-100.00,WNW,285,7.0,12.0,36,-99.99,,,-99.99,,2013-07-25 18:22:00,
2013-07-25 11:33:00,73.0,44.0,-100.00,WNW,285,7.0,12.0,36,-99.99,,,-99.99,,2013-07-25 18:33:00,
2013-07-25 11:43:00,75.0,42.0,-100.00,West,268,7.0,13.0,31,-99.99,,,-99.99,,2013-07-25 18:43:00,
2013-07-25 11:52:00,75.0,42.0,-100.00,West,268,7.0,13.0,31,-99.99,,,-99.99,,2013-07-25 18:52:00,
2013-07-25 12:02:00,75.0,36.0,-100.00,West,268,8.0,14.0,24,-99.99,,,-99.99,,2013-07-25 19:02:00,
2013-07-25 12:11:00,75.0,36.0,-100.00,West,268,8.0,14.0,24,-99.99,,,-99.99,,2013-07-25 19:11:00,
2013-07-25 12:22:00,75.0,36.0,-100.00,West,268,8.0,14.0,24,-99.99,,,-99.99,,2013-07-25 19:22:00,
2013-07-25 12:42:00,77.0,36.0,-100.00,West,264,10.0,16.0,23,-99.99,,,-99.99,,2013-07-25 19:42:00,
2013-07-25 12:52:00,77.0,36.0,-100.00,West,264,10.0,16.0,23,-99.99,,,-99.99,,2013-07-25 19:52:00,
2013-07-25 13:02:00,77.0,36.0,-100.00,West,264,10.0,16.0,23,-99.99,,,-99.99,,2013-07-25 20:02:00,
2013-07-25 13:43:00,78.0,35.0,-100.00,WNW,285,9.0,18.0,21,-99.99,,,-99.99,,2013-07-25 20:43:00,
2013-07-25 13:53:00,78.0,35.0,-100.00,WNW,285,9.0,18.0,21,-99.99,,,-99.99,,2013-07-25 20:53:00,
2013-07-25 14:02:00,78.0,35.0,-100.00,WNW,285,9.0,18.0,21,-99.99,,,-99.99,,2013-07-25 21:02:00,
2013-07-25 14:11:00,78.0,35.0,-100.00,WNW,285,9.0,18.0,21,-99.99,,,-99.99,,2013-07-25 21:11:00,
2013-07-25 14:44:00,78.0,34.0,-100.00,WNW,298,9.0,21.0,20,-99.99,,,-99.99,,2013-07-25 21:44:00,
2013-07-25 14:52:00,78.0,34.0,-100.00,WNW,298,9.0,21.0,20,-99.99,,,-99.99,,2013-07-25 21:52:00,
2013-07-25 15:02:00,78.0,34.0,-100.00,WNW,298,9.0,21.0,20,-99.99,,,-99.99,,2013-07-25 22:02:00,
2013-07-25 15:11:00,78.0,34.0,-100.00,WNW,298,9.0,21.0,20,-99.99,,,-99.99,,2013-07-25 22:11:00,
2013-07-25 15:22:00,81.0,31.0,-100.00,WNW,288,9.0,17.0,16,-99.99,,,-99.99,,2013-07-25 22:22:00,
2013-07-25 15:32:00,81.0,31.0,-100.00,WNW,288,9.0,17.0,16,-99.99,,,-99.99,,2013-07-25 22:32:00,
2013-07-25 15:43:00,81.0,29.0,-100.00,NNW,336,5.0,13.0,15,-99.99,,,-99.99,,2013-07-25 22:43:00,
2013-07-25 15:52:00,81.0,29.0,-100.00,NNW,336,5.0,13.0,15,-99.99,,,-99.99,,2013-07-25 22:52:00,
2013-07-25 16:02:00,81.0,29.0,-100.00,NNW,336,5.0,13.0,15,-99.99,,,-99.99,,2013-07-25 23:02:00,
2013-07-25 16:11:00,81.0,29.0,-100.00,NNW,336,5.0,13.0,15,-99.99,,,-99.99,,2013-07-25 23:11:00,
2013-07-25 16:43:00,81.0,34.0,-100.00,North,-999,-999.0,-999.0,18,-99.99,,,-99.99,,2013-07-25 23:43:00,
2013-07-25 16:52:00,81.0,33.0,-100.00,NW,308,8.0,15.0,18,-99.99,,,-99.99,,2013-07-25 23:52:00,
2013-07-25 17:02:00,81.0,33.0,-100.00,NW,308,8.0,15.0,18,-99.99,,,-99.99,,2013-07-26 00:02:00,
2013-07-25 17:11:00,81.0,33.0,-100.00,NW,308,8.0,15.0,18,-99.99,,,-99.99,,2013-07-26 00:11:00,
2013-07-25 17:43:00,81.0,32.0,-100.00,West,280,8.0,16.0,17,-99.99,,,-99.99,,2013-07-26 00:43:00,
2013-07-25 17:52:00,81.0,32.0,-100.00,West,280,8.0,16.0,17,-99.99,,,-99.99,,2013-07-26 00:52:00,
2013-07-25 18:12:00,79.0,35.0,-100.00,North,-999,-999.0,-999.0,20,-99.99,,,-99.99,,2013-07-26 01:12:00,
2013-07-25 18:22:00,79.0,34.0,-100.00,NNW,339,7.0,13.0,20,-99.99,,,-99.99,,2013-07-26 01:22:00,
2013-07-25 18:32:00,79.0,34.0,-100.00,NNW,339,7.0,13.0,20,-99.99,,,-99.99,,2013-07-26 01:32:00,
2013-07-25 18:40:00,78.0,34.0,-100.00,WNW,296,3.0,6.0,20,-99.99,,,-99.99,,2013-07-26 01:40:00,
2013-07-25 18:43:00,78.0,36.0,-100.00,North,-999,-999.0,-999.0,21,-99.99,,,-99.99,,2013-07-26 01:43:00,
2013-07-25 19:02:00,78.0,35.0,-100.00,WNW,289,6.0,10.0,21,-99.99,,,-99.99,,2013-07-26 02:02:00,
2013-07-25 19:12:00,78.0,34.0,-100.00,WNW,296,3.0,6.0,20,-99.99,,,-99.99,,2013-07-26 02:12:00,
2013-07-25 19:21:00,78.0,34.0,-100.00,WNW,296,3.0,6.0,20,-99.99,,,-99.99,,2013-07-26 02:21:00,
2013-07-25 19:32:00,78.0,34.0,-100.00,WNW,296,3.0,6.0,20,-99.99,,,-99.99,,2013-07-26 02:32:00,
2013-07-25 19:42:00,75.0,37.0,-100.00,NNW,346,3.0,4.0,25,-99.99,,,-99.99,,2013-07-26 02:42:00,
2013-07-25 20:02:00,75.0,37.0,-100.00,North,-999,-999.0,-999.0,25,-99.99,,,-99.99,,2013-07-26 03:02:00,
2013-07-25 20:12:00,75.0,37.0,-100.00,NNW,346,3.0,4.0,25,-99.99,,,-99.99,,2013-07-26 03:12:00,
2013-07-25 20:22:00,75.0,37.0,-100.00,NNW,346,3.0,4.0,25,-99.99,,,-99.99,,2013-07-26 03:22:00,
2013-07-25 20:32:00,75.0,37.0,-100.00,NNW,346,3.0,4.0,25,-99.99,,,-99.99,,2013-07-26 03:32:00,
2013-07-25 21:02:00,72.0,37.0,-100.00,North,-999,-999.0,-999.0,28,-99.99,,,-99.99,,2013-07-26 04:02:00,
2013-07-25 21:22:00,72.0,37.0,-100.00,North,359,6.0,10.0,28,-99.99,,,-99.99,,2013-07-26 04:22:00,
2013-07-25 21:32:00,72.0,37.0,-100.00,North,1,6.0,10.0,28,-99.99,,,-99.99,,2013-07-26 04:32:00,
2013-07-25 21:42:00,72.0,37.0,-100.00,North,1,6.0,10.0,28,-99.99,,,-99.99,,2013-07-26 04:42:00,
2013-07-25 21:53:00,72.0,37.0,-100.00,North,359,6.0,9.0,28,-99.99,,,-99.99,,2013-07-26 04:53:00,
2013-07-25 22:02:00,72.0,37.0,-100.00,North,359,6.0,9.0,28,-99.99,,,-99.99,,2013-07-26 05:02:00,
2013-07-25 22:22:00,71.0,37.0,-100.00,North,3,4.0,8.0,29,-99.99,,,-99.99,,2013-07-26 05:22:00,
2013-07-25 22:32:00,70.0,37.0,-100.00,NNE,14,7.0,10.0,30,-99.99,,,-99.99,,2013-07-26 05:32:00,
2013-07-25 22:43:00,70.0,37.0,-100.00,NNE,14,7.0,10.0,30,-99.99,,,-99.99,,2013-07-26 05:43:00,
2013-07-25 22:52:00,70.0,36.0,-100.00,North,11,6.0,10.0,29,-99.99,,,-99.99,,2013-07-26 05:52:00,
2013-07-25 23:02:00,70.0,36.0,-100.00,North,11,6.0,10.0,29,-99.99,,,-99.99,,2013-07-26 06:02:00,
2013-07-25 23:12:00,70.0,36.0,-100.00,North,11,6.0,10.0,29,-99.99,,,-99.99,,2013-07-26 06:12:00,
2013-07-25 23:33:00,68.0,36.0,-100.00,NNE,17,6.0,8.0,31,-99.99,,,-99.99,,2013-07-26 06:33:00,
2013-07-25 23:43:00,68.0,36.0,-100.00,NNE,17,6.0,8.0,31,-99.99,,,-99.99,,2013-07-26 06:43:00,